Time;durP1;ratioP1;P1;durP2;ratioP2;P2;SDS_P1;SDS_P2;PMS_P1;PMS_P2;Temp;Humidity;BMP_temperature;BMP_pressure;BME280_temperature;BME280_humidity;BME280_pressure;Samples;Min_cycle;Max_cycle;Signal;HPM_P1;HPM_P2
2021/03/13 00:00:52;;;;;;;15.20;3.65;;;14.30;54.20;;;;;;5094761;28;20123;-75
2021/03/13 00:03:18;;;;;;;17.83;3.85;;;14.30;54.20;;;;;;5094404;28;20089;-76
2021/03/13 00:05:45;;;;;;;12.65;3.35;;;14.30;54.20;;;;;;5095586;28;20040;-73
2021/03/13 00:08:12;;;;;;;14.00;4.00;;;14.20;54.30;;;;;;5095921;28;20115;-75
2021/03/13 00:10:40;;;;;;;15.93;3.35;;;14.20;54.30;;;;;;5095649;28;20105;-75
2021/03/13 00:13:07;;;;;;;16.83;3.80;;;14.20;54.50;;;;;;5094866;28;20115;-74
2021/03/13 00:15:32;;;;;;;17.40;3.42;;;14.20;54.40;;;;;;5095313;28;20150;-75
2021/03/13 00:18:00;;;;;;;15.52;3.78;;;14.20;55.10;;;;;;5095913;28;20123;-74
2021/03/13 00:20:29;;;;;;;16.77;4.70;;;14.20;54.40;;;;;;5099279;28;20042;-74
2021/03/13 00:22:57;;;;;;;11.55;3.85;;;14.20;54.40;;;;;;5098928;28;20100;-74
2021/03/13 00:25:24;;;;;;;17.45;4.22;;;14.20;54.50;;;;;;5098996;28;20120;-74
2021/03/13 00:27:51;;;;;;;13.25;4.68;;;14.20;54.50;;;;;;5098435;28;20342;-74
2021/03/13 00:30:24;;;;;;;15.60;3.65;;;14.20;54.40;;;;;;5098461;28;20060;-76
2021/03/13 00:32:56;;;;;;;12.63;3.90;;;14.10;54.50;;;;;;5098695;28;20036;-75
2021/03/13 00:35:25;;;;;;;15.20;3.85;;;14.20;54.60;;;;;;5098762;28;20093;-74
2021/03/13 00:37:51;;;;;;;15.25;3.42;;;14.10;54.50;;;;;;5098482;28;20039;-74
2021/03/13 00:40:20;;;;;;;12.23;3.63;;;14.10;54.50;;;;;;5099193;28;20032;-74
2021/03/13 00:42:46;;;;;;;16.75;4.18;;;14.10;54.50;;;;;;5098740;28;20476;-74
2021/03/13 00:45:15;;;;;;;11.93;3.65;;;14.10;54.60;;;;;;5098127;28;20393;-76
2021/03/13 00:47:41;;;;;;;15.75;3.40;;;14.10;54.60;;;;;;5098721;28;20097;-74
2021/03/13 00:50:08;;;;;;;16.90;3.60;;;14.10;54.60;;;;;;5098753;28;20051;-76
2021/03/13 00:52:34;;;;;;;12.60;3.38;;;14.10;54.50;;;;;;5098889;28;20131;-75
2021/03/13 00:55:00;;;;;;;11.55;2.65;;;14.10;54.60;;;;;;5098285;28;20036;-74
2021/03/13 00:57:26;;;;;;;12.57;3.47;;;14.00;54.60;;;;;;5098464;28;20032;-75
2021/03/13 00:59:52;;;;;;;14.80;3.08;;;14.00;54.50;;;;;;5098105;28;20052;-75
2021/03/13 01:02:18;;;;;;;14.15;3.38;;;14.10;54.60;;;;;;5098731;28;20423;-74
2021/03/13 01:04:43;;;;;;;14.98;3.20;;;14.00;54.60;;;;;;5098875;28;20040;-75
2021/03/13 01:07:09;;;;;;;14.23;2.78;;;14.00;54.60;;;;;;5098054;28;20422;-75
2021/03/13 01:09:36;;;;;;;15.70;3.72;;;14.00;54.50;;;;;;5098255;28;20040;-75
2021/03/13 01:12:03;;;;;;;10.05;2.83;;;14.00;54.50;;;;;;5098757;28;20036;-75
2021/03/13 01:14:30;;;;;;;13.45;3.78;;;14.00;54.50;;;;;;5097756;28;20060;-74
2021/03/13 01:16:55;;;;;;;11.25;3.10;;;14.00;54.50;;;;;;5080291;28;20040;-74
2021/03/13 01:19:21;;;;;;;12.73;4.25;;;14.00;54.60;;;;;;5098466;28;20040;-73
2021/03/13 01:21:47;;;;;;;10.45;2.42;;;14.00;54.50;;;;;;5097790;28;20381;-74
2021/03/13 01:24:13;;;;;;;10.70;2.90;;;14.00;54.60;;;;;;5097435;28;20093;-74
2021/03/13 01:26:39;;;;;;;11.23;3.20;;;14.00;54.60;;;;;;5097254;28;20040;-75
2021/03/13 01:29:06;;;;;;;12.25;3.03;;;13.90;54.60;;;;;;5097625;28;20130;-76
2021/03/13 01:31:32;;;;;;;10.65;3.10;;;13.90;54.70;;;;;;5098085;28;20438;-75
2021/03/13 01:33:58;;;;;;;12.88;2.78;;;13.90;54.70;;;;;;5097561;28;20046;-77
2021/03/13 01:36:24;;;;;;;10.90;2.70;;;13.90;54.70;;;;;;5097667;28;20048;-74
2021/03/13 01:38:51;;;;;;;10.27;2.75;;;13.90;54.70;;;;;;5097512;28;20392;-74
2021/03/13 01:41:18;;;;;;;10.55;3.28;;;13.90;54.70;;;;;;5097821;28;20108;-74
2021/03/13 01:43:44;;;;;;;13.93;2.83;;;14.00;54.90;;;;;;5097809;28;20044;-73
2021/03/13 01:46:10;;;;;;;11.82;3.00;;;13.90;54.90;;;;;;5097992;28;20035;-74
2021/03/13 01:48:49;;;;;;;10.32;2.75;;;13.90;54.90;;;;;;5097377;28;20048;-76
2021/03/13 01:51:16;;;;;;;11.50;2.97;;;13.90;54.90;;;;;;5097440;28;20396;-75
2021/03/13 01:53:42;;;;;;;11.05;3.03;;;13.90;55.00;;;;;;5097293;28;20473;-76
2021/03/13 01:56:08;;;;;;;13.73;3.08;;;13.90;55.10;;;;;;5097100;28;20040;-73
2021/03/13 01:58:34;;;;;;;15.20;2.75;;;13.90;55.10;;;;;;5097258;28;20063;-74
2021/03/13 02:01:00;;;;;;;13.60;2.67;;;13.90;55.20;;;;;;5097518;28;20071;-74
2021/03/13 02:03:26;;;;;;;12.93;3.05;;;13.90;55.30;;;;;;5097024;28;20043;-74
2021/03/13 02:05:53;;;;;;;12.43;3.20;;;13.90;56.00;;;;;;5097047;28;20039;-74
2021/03/13 02:08:43;;;;;;;14.02;3.45;;;13.90;55.50;;;;;;5097397;28;20366;-74
2021/03/13 02:11:42;;;;;;;13.85;3.80;;;13.90;55.30;;;;;;5096598;28;20035;-74
2021/03/13 02:14:30;;;;;;;13.63;3.90;;;13.90;55.50;;;;;;5076526;28;20432;-73
2021/03/13 02:17:01;;;;;;;14.45;3.75;;;13.90;55.70;;;;;;5076617;28;20062;-74
2021/03/13 02:20:04;;;;;;;17.05;3.50;;;13.90;55.70;;;;;;5076745;28;20047;-75
2021/03/13 02:22:36;;;;;;;12.07;4.00;;;13.90;55.70;;;;;;5089082;28;20052;-74
2021/03/13 02:25:22;;;;;;;14.52;3.80;;;13.80;55.80;;;;;;5097347;28;20043;-76
2021/03/13 02:28:07;;;;;;;13.50;4.07;;;13.90;55.80;;;;;;5096585;28;20036;-75
2021/03/13 02:30:35;;;;;;;14.88;3.38;;;13.90;55.90;;;;;;5079251;28;20040;-73
2021/03/13 02:33:15;;;;;;;11.50;3.22;;;13.90;56.00;;;;;;5096445;28;20043;-74
2021/03/13 02:35:44;;;;;;;11.73;3.22;;;13.80;55.90;;;;;;5096747;28;20039;-76
2021/03/13 02:38:15;;;;;;;12.27;3.33;;;13.80;56.00;;;;;;5096463;28;20443;-74
2021/03/13 02:40:47;;;;;;;13.45;3.67;;;13.90;56.00;;;;;;5095963;28;20044;-75
2021/03/13 02:43:16;;;;;;;13.15;4.03;;;13.80;55.90;;;;;;5095437;28;20040;-74
2021/03/13 02:45:53;;;;;;;12.98;3.47;;;13.80;56.00;;;;;;5095817;28;20047;-74
2021/03/13 02:48:21;;;;;;;12.40;3.55;;;13.80;56.00;;;;;;5096603;28;20469;-76
2021/03/13 02:50:48;;;;;;;13.05;3.35;;;13.80;56.00;;;;;;5096319;28;20068;-75
2021/03/13 02:53:15;;;;;;;8.65;2.97;;;13.80;56.00;;;;;;5095415;28;20036;-75
2021/03/13 02:55:42;;;;;;;9.60;3.03;;;13.80;56.10;;;;;;5095996;28;20040;-75
2021/03/13 02:58:09;;;;;;;10.02;2.90;;;13.80;56.00;;;;;;5095493;28;20060;-76
2021/03/13 03:00:40;;;;;;;11.40;2.58;;;13.80;56.00;;;;;;5095977;28;20518;-74
2021/03/13 03:03:07;;;;;;;10.63;2.67;;;13.80;56.00;;;;;;5095833;28;20040;-73
2021/03/13 03:05:34;;;;;;;9.10;2.83;;;13.80;56.10;;;;;;5096317;28;20127;-76
2021/03/13 03:08:05;;;;;;;12.23;3.05;;;13.80;56.00;;;;;;5095575;28;20042;-74
2021/03/13 03:10:41;;;;;;;10.35;2.75;;;13.80;56.00;;;;;;5095258;28;20036;-73
2021/03/13 03:13:09;;;;;;;5.78;2.42;;;13.80;55.90;;;;;;5096247;28;20051;-76
2021/03/13 03:15:35;;;;;;;9.38;1.92;;;13.80;56.00;;;;;;5096213;28;20055;-75
2021/03/13 03:18:07;;;;;;;7.53;2.40;;;13.80;56.70;;;;;;5095775;28;20051;-76
2021/03/13 03:20:35;;;;;;;7.03;1.95;;;13.80;56.10;;;;;;5095922;28;20504;-73
2021/03/13 03:23:02;;;;;;;6.35;2.35;;;13.80;56.20;;;;;;5095635;28;20469;-75
2021/03/13 03:25:28;;;;;;;7.22;2.08;;;13.70;56.20;;;;;;5095834;28;20051;-76
2021/03/13 03:27:54;;;;;;;7.32;1.92;;;13.70;56.20;;;;;;5095641;28;20048;-75
2021/03/13 03:30:21;;;;;;;7.70;2.03;;;13.70;56.30;;;;;;5095121;28;20075;-75
2021/03/13 03:32:46;;;;;;;6.47;1.70;;;13.70;56.40;;;;;;5095814;28;20071;-74
2021/03/13 03:35:14;;;;;;;6.63;2.47;;;13.70;56.50;;;;;;5095513;28;20071;-76
2021/03/13 03:37:40;;;;;;;6.82;2.10;;;13.70;56.60;;;;;;5095449;28;20063;-75
2021/03/13 03:40:07;;;;;;;7.35;2.17;;;13.70;56.70;;;;;;5094978;28;20046;-74
2021/03/13 03:42:37;;;;;;;4.70;1.23;;;13.70;56.70;;;;;;5095706;28;20054;-73
2021/03/13 03:45:04;;;;;;;5.22;1.70;;;13.70;56.50;;;;;;5095660;28;20322;-74
2021/03/13 03:47:31;;;;;;;6.20;1.48;;;13.70;56.50;;;;;;5095378;28;20470;-74
2021/03/13 03:49:57;;;;;;;5.03;1.20;;;13.70;56.40;;;;;;5094536;28;20044;-75
2021/03/13 03:52:24;;;;;;;4.90;1.70;;;13.70;56.40;;;;;;5095093;28;20039;-73
2021/03/13 03:54:52;;;;;;;4.18;0.90;;;13.70;56.40;;;;;;5095860;28;20135;-75
2021/03/13 03:57:18;;;;;;;4.30;1.33;;;13.70;56.50;;;;;;5094857;28;20122;-75
2021/03/13 03:59:46;;;;;;;4.22;1.30;;;13.70;56.60;;;;;;5094228;28;20056;-74
2021/03/13 04:02:13;;;;;;;4.15;1.20;;;13.70;56.50;;;;;;5095105;28;20058;-74
2021/03/13 04:04:40;;;;;;;4.22;1.30;;;13.60;56.50;;;;;;5094810;28;20418;-75
2021/03/13 04:07:08;;;;;;;5.75;1.20;;;13.70;56.50;;;;;;5095449;28;20173;-76
2021/03/13 04:09:34;;;;;;;3.15;1.02;;;13.60;56.50;;;;;;5095551;28;20089;-77
2021/03/13 04:12:04;;;;;;;3.47;0.85;;;13.60;56.50;;;;;;5095318;28;20043;-74
2021/03/13 04:14:32;;;;;;;1.60;0.50;;;13.60;56.60;;;;;;5094567;28;20047;-77
2021/03/13 04:16:59;;;;;;;1.92;0.60;;;13.60;56.60;;;;;;5094975;28;20500;-73
2021/03/13 04:19:26;;;;;;;3.42;0.88;;;13.60;56.60;;;;;;5095195;28;20087;-74
2021/03/13 04:21:52;;;;;;;3.10;0.82;;;13.60;56.60;;;;;;5094929;28;20040;-73
2021/03/13 04:24:18;;;;;;;3.13;0.80;;;13.60;56.60;;;;;;5095023;28;20357;-75
2021/03/13 04:26:45;;;;;;;3.45;0.98;;;13.60;56.70;;;;;;5095212;28;20085;-74
2021/03/13 04:29:12;;;;;;;3.03;0.68;;;13.60;56.70;;;;;;5095832;28;20047;-74
2021/03/13 04:31:38;;;;;;;4.55;1.35;;;13.60;56.60;;;;;;5094879;28;20040;-73
2021/03/13 04:34:05;;;;;;;2.17;0.80;;;13.60;56.60;;;;;;5094895;28;20051;-75
2021/03/13 04:36:32;;;;;;;4.47;0.88;;;13.60;56.70;;;;;;5094638;28;20036;-73
2021/03/13 04:39:00;;;;;;;2.00;0.90;;;13.60;56.70;;;;;;5095014;28;20064;-74
2021/03/13 04:41:27;;;;;;;2.05;0.75;;;13.60;56.90;;;;;;5094803;28;20068;-74
2021/03/13 04:43:54;;;;;;;3.03;1.10;;;13.60;56.80;;;;;;5094539;28;20059;-74
2021/03/13 04:46:20;;;;;;;2.15;1.13;;;13.60;56.90;;;;;;5094387;28;20028;-75
2021/03/13 04:48:47;;;;;;;2.25;0.90;;;13.60;57.10;;;;;;5094757;28;20044;-73
2021/03/13 04:51:17;;;;;;;3.65;1.15;;;13.60;57.10;;;;;;5094691;28;20036;-75
2021/03/13 04:53:44;;;;;;;2.50;1.00;;;13.60;57.10;;;;;;5074766;28;20036;-75
2021/03/13 04:56:10;;;;;;;3.78;0.98;;;13.50;57.10;;;;;;5074564;28;20040;-75
2021/03/13 04:58:36;;;;;;;3.03;0.93;;;13.60;57.10;;;;;;5074608;28;20048;-74
2021/03/13 05:01:02;;;;;;;2.42;0.80;;;13.50;57.10;;;;;;5074535;28;20424;-76
2021/03/13 05:03:27;;;;;;;5.65;1.20;;;13.60;57.10;;;;;;5092866;28;20105;-76
2021/03/13 05:05:53;;;;;;;3.13;0.80;;;13.60;57.00;;;;;;5097741;28;20039;-73
2021/03/13 05:08:19;;;;;;;2.63;0.90;;;13.50;56.90;;;;;;5098117;28;20073;-74
2021/03/13 05:10:45;;;;;;;2.90;1.13;;;13.60;56.90;;;;;;5098598;28;20105;-75
2021/03/13 05:13:11;;;;;;;3.22;0.73;;;13.60;56.90;;;;;;5097512;28;20100;-74
2021/03/13 05:15:37;;;;;;;4.03;1.10;;;13.60;56.90;;;;;;5080405;28;20388;-74
2021/03/13 05:18:04;;;;;;;1.92;0.70;;;13.60;56.90;;;;;;5097829;28;20111;-73
2021/03/13 05:20:30;;;;;;;1.90;0.98;;;13.60;57.10;;;;;;5098192;28;20429;-76
2021/03/13 05:22:56;;;;;;;3.00;0.85;;;13.60;57.10;;;;;;5097947;28;20119;-74
2021/03/13 05:25:22;;;;;;;2.30;0.65;;;13.60;57.10;;;;;;5098331;28;20051;-73
2021/03/13 05:27:48;;;;;;;2.95;0.80;;;13.60;57.20;;;;;;5098555;28;20044;-76
2021/03/13 05:30:14;;;;;;;2.58;0.57;;;13.60;57.30;;;;;;5097994;28;20097;-75
2021/03/13 05:32:40;;;;;;;2.63;0.80;;;13.50;57.30;;;;;;5097491;28;20427;-75
2021/03/13 05:35:09;;;;;;;3.13;0.80;;;13.50;57.30;;;;;;5098076;28;20070;-74
2021/03/13 05:37:36;;;;;;;2.40;0.88;;;13.50;57.50;;;;;;5080023;28;20040;-74
2021/03/13 05:40:07;;;;;;;3.58;0.88;;;13.50;57.60;;;;;;5097506;28;20115;-76
2021/03/13 05:42:35;;;;;;;2.85;0.90;;;13.50;57.80;;;;;;5097658;28;20066;-74
2021/03/13 05:45:02;;;;;;;2.40;0.63;;;13.50;57.90;;;;;;5098241;28;20040;-74
2021/03/13 05:47:29;;;;;;;2.55;0.90;;;13.50;57.90;;;;;;5097508;28;20032;-74
2021/03/13 05:50:08;;;;;;;3.60;0.65;;;13.50;57.80;;;;;;5097371;28;20044;-75
2021/03/13 05:52:36;;;;;;;5.55;0.82;;;13.50;57.40;;;;;;5097267;28;20071;-76
2021/03/13 05:55:04;;;;;;;3.92;1.02;;;13.60;57.40;;;;;;5095581;28;20040;-78
2021/03/13 05:57:31;;;;;;;3.10;0.77;;;13.60;57.50;;;;;;5104634;28;20036;-76
2021/03/13 06:00:00;;;;;;;1.17;0.50;;;13.60;57.70;;;;;;5097044;28;20040;-83
2021/03/13 06:03:07;;;;;;;2.75;0.50;;;13.70;57.30;;;;;;5096792;28;20032;-79
2021/03/13 06:05:38;;;;;;;2.45;0.73;;;13.80;57.20;;;;;;5078982;28;20415;-80
2021/03/13 06:12:10;;;;;;;2.60;0.63;;;14.20;56.60;;;;;;4956310;29;20454;-79
2021/03/13 06:14:39;;;;;;;7.07;0.47;;;14.40;56.30;;;;;;4962066;28;20053;-77
2021/03/13 06:17:06;;;;;;;7.03;1.15;;;14.60;56.00;;;;;;4995300;28;20144;-78
2021/03/13 06:19:53;;;;;;;6.50;1.45;;;14.70;57.80;;;;;;4990469;28;20043;-78
2021/03/13 06:22:36;;;;;;;5.47;1.50;;;14.80;58.80;;;;;;4975868;28;20122;-80
2021/03/13 06:25:20;;;;;;;4.63;1.50;;;14.90;58.60;;;;;;4984449;28;20110;-75
2021/03/13 06:28:12;;;;;;;5.30;1.17;;;14.90;58.60;;;;;;5059311;28;20090;-78
2021/03/13 06:30:45;;;;;;;9.10;1.77;;;15.00;58.70;;;;;;5071452;28;20048;-79
2021/03/13 06:37:38;;;;;;;3.45;1.00;;;15.20;58.70;;;;;;5076115;28;20047;-81
2021/03/13 06:40:26;;;;;;;6.10;1.30;;;15.40;58.40;;;;;;5061332;28;20391;-79
2021/03/13 06:43:25;;;;;;;8.10;1.20;;;15.60;58.00;;;;;;5055182;28;20414;-78
2021/03/13 06:46:20;;;;;;;10.25;1.42;;;15.70;58.00;;;;;;5096287;28;20039;-81
2021/03/13 06:48:50;;;;;;;8.35;0.93;;;15.80;58.10;;;;;;5096182;28;20051;-77
2021/03/13 06:51:20;;;;;;;6.88;1.50;;;15.90;57.50;;;;;;5096690;28;20040;-75
2021/03/13 06:54:11;;;;;;;7.47;1.40;;;16.00;57.60;;;;;;5096257;28;20047;-75
2021/03/13 06:56:38;;;;;;;7.25;1.00;;;16.10;57.40;;;;;;5096394;28;20043;-76
2021/03/13 06:59:24;;;;;;;5.20;1.13;;;16.20;57.10;;;;;;5095383;28;20127;-76
2021/03/13 07:02:09;;;;;;;5.50;0.98;;;16.30;57.00;;;;;;5096252;28;20343;-76
2021/03/13 07:04:42;;;;;;;5.10;0.80;;;16.30;56.80;;;;;;5095914;28;20483;-76
2021/03/13 07:07:13;;;;;;;6.18;0.93;;;16.50;56.70;;;;;;5095605;28;20067;-74
2021/03/13 07:09:54;;;;;;;6.90;1.13;;;16.50;57.30;;;;;;5095927;28;20119;-74
2021/03/13 07:12:27;;;;;;;6.03;1.15;;;16.60;56.60;;;;;;5095912;28;20111;-75
2021/03/13 07:14:58;;;;;;;;;;;16.70;56.50;;;;;;5096290;28;20051;-75
2021/03/13 07:17:25;;;;;;;11.77;1.63;;;16.70;56.10;;;;;;5094473;28;20318;-79
2021/03/13 07:19:52;;;;;;;6.60;0.98;;;16.80;56.30;;;;;;5083648;28;20399;-77
2021/03/13 07:22:19;;;;;;;12.15;1.00;;;16.90;55.90;;;;;;5095234;28;20079;-78
2021/03/13 07:24:54;;;;;;;5.80;0.90;;;16.90;54.60;;;;;;5094574;28;20032;-80
2021/03/13 07:27:22;;;;;;;10.05;1.55;;;16.90;55.10;;;;;;5092040;28;20032;-78
2021/03/13 07:29:50;;;;;;;4.97;1.17;;;16.90;55.10;;;;;;5087058;28;20051;-78
2021/03/13 07:32:21;;;;;;;5.85;1.25;;;16.90;54.40;;;;;;5094015;28;20093;-79
2021/03/13 07:34:47;;;;;;;5.57;1.55;;;16.90;54.00;;;;;;5076506;28;20044;-80
2021/03/13 07:37:17;;;;;;;5.15;1.15;;;16.80;54.50;;;;;;5093179;28;20308;-79
2021/03/13 07:39:50;;;;;;;9.70;1.23;;;16.80;54.70;;;;;;5095060;28;20036;-81
2021/03/13 07:42:20;;;;;;;8.65;1.92;;;16.80;54.80;;;;;;5091606;28;20039;-81
2021/03/13 07:44:47;;;;;;;8.73;2.25;;;16.90;54.90;;;;;;5092005;28;20051;-79
2021/03/13 07:47:15;;;;;;;10.20;1.92;;;16.80;54.80;;;;;;5095382;28;20042;-79
2021/03/13 07:49:42;;;;;;;8.80;1.55;;;16.80;54.90;;;;;;5094772;28;20040;-79
2021/03/13 07:52:11;;;;;;;9.15;1.98;;;16.90;54.90;;;;;;5095581;28;20040;-78
2021/03/13 07:54:43;;;;;;;7.38;2.22;;;16.80;54.70;;;;;;5091447;28;20040;-80
2021/03/13 07:57:10;;;;;;;9.20;2.03;;;16.90;54.70;;;;;;5093102;28;20108;-79
2021/03/13 07:59:46;;;;;;;10.57;2.40;;;16.90;54.70;;;;;;5090762;28;20191;-78
2021/03/13 08:02:31;;;;;;;11.23;2.05;;;16.90;54.60;;;;;;5092434;28;20115;-78
2021/03/13 08:05:16;;;;;;;17.05;2.55;;;16.90;54.50;;;;;;5076621;28;20047;-78
2021/03/13 08:07:54;;;;;;;9.13;2.10;;;16.90;54.40;;;;;;5091733;28;20070;-78
2021/03/13 08:10:49;;;;;;;6.28;1.95;;;16.90;54.30;;;;;;5085136;28;20563;-79
2021/03/13 08:13:27;;;;;;;11.90;1.75;;;17.00;54.30;;;;;;5089372;28;20050;-81
2021/03/13 08:16:05;;;;;;;10.85;2.17;;;17.00;54.10;;;;;;5089926;28;20032;-80
2021/03/13 08:18:41;;;;;;;9.52;2.15;;;17.00;53.90;;;;;;5083310;28;20036;-80
2021/03/13 08:21:19;;;;;;;10.95;2.17;;;17.10;53.80;;;;;;5077459;28;20057;-79
2021/03/13 08:23:48;;;;;;;8.13;2.35;;;17.10;53.70;;;;;;5088867;28;20170;-78
2021/03/13 08:26:16;;;;;;;11.73;2.53;;;17.10;53.30;;;;;;5091237;28;20040;-79
2021/03/13 08:28:48;;;;;;;13.23;2.53;;;17.20;53.30;;;;;;5089517;28;20040;-80
2021/03/13 08:31:32;;;;;;;13.75;2.78;;;17.20;53.20;;;;;;5073722;28;20158;-79
2021/03/13 08:34:09;;;;;;;11.70;2.45;;;17.20;53.00;;;;;;5063545;28;20053;-80
2021/03/13 08:36:51;;;;;;;10.02;1.90;;;17.20;53.00;;;;;;5084575;28;20047;-80
2021/03/13 08:39:22;;;;;;;9.80;2.10;;;17.20;52.80;;;;;;5081883;28;20036;-79
2021/03/13 08:41:50;;;;;;;11.07;2.20;;;17.20;53.10;;;;;;5093612;28;20040;-79
2021/03/13 08:44:16;;;;;;;15.50;2.58;;;17.20;52.90;;;;;;5096255;28;20044;-79
2021/03/13 08:47:11;;;;;;;11.18;2.17;;;17.20;52.90;;;;;;5096572;28;20036;-80
2021/03/13 08:49:47;;;;;;;12.45;2.50;;;17.10;52.90;;;;;;5062446;28;20047;-79
2021/03/13 08:52:18;;;;;;;10.00;2.25;;;17.20;52.80;;;;;;5068819;28;20124;-80
2021/03/13 08:54:50;;;;;;;13.55;2.35;;;17.20;52.80;;;;;;5066705;28;20029;-80
2021/03/13 08:57:24;;;;;;;11.35;2.47;;;17.20;52.60;;;;;;5056999;28;20115;-79
2021/03/13 09:07:50;;;;;;;10.45;2.25;;;17.40;52.30;;;;;;5063968;28;20047;-80
2021/03/13 09:10:25;;;;;;;9.95;2.22;;;17.50;52.20;;;;;;5074101;28;20055;-81
2021/03/13 09:13:02;;;;;;;7.65;1.73;;;17.50;52.00;;;;;;5046644;28;20037;-82
2021/03/13 09:15:40;;;;;;;9.57;2.45;;;17.60;52.00;;;;;;5058558;28;20036;-81
2021/03/13 09:18:14;;;;;;;6.50;1.88;;;17.60;51.80;;;;;;5057041;28;20029;-80
2021/03/13 09:20:59;;;;;;;10.05;2.50;;;17.70;51.60;;;;;;5057350;28;20403;-80
2021/03/13 09:23:27;;;;;;;10.60;2.47;;;17.70;51.60;;;;;;5050112;28;20044;-82
2021/03/13 09:25:53;;;;;;;16.60;2.90;;;17.70;51.50;;;;;;5075147;28;20066;-76
2021/03/13 09:28:20;;;;;;;12.90;2.25;;;17.70;51.50;;;;;;5076085;28;20032;-75
2021/03/13 09:30:46;;;;;;;10.85;2.58;;;17.80;51.70;;;;;;5064860;28;20094;-78
2021/03/13 09:33:20;;;;;;;10.43;2.20;;;17.70;51.00;;;;;;5061269;28;20052;-79
2021/03/13 09:39:30;;;;;;;11.88;2.33;;;17.70;51.90;;;;;;5072463;28;20056;-82
2021/03/13 09:42:07;;;;;;;10.93;2.20;;;17.70;51.50;;;;;;5072812;28;20028;-82
2021/03/13 09:44:44;;;;;;;10.52;3.00;;;17.70;51.30;;;;;;5074200;28;20043;-81
2021/03/13 09:47:17;;;;;;;10.75;2.40;;;17.80;51.20;;;;;;5056961;28;20087;-80
2021/03/13 09:49:44;;;;;;;;;;;17.80;51.10;;;;;;5072225;28;20050;-81
2021/03/13 09:52:12;;;;;;;8.20;2.47;;;17.80;51.10;;;;;;5074969;28;20011;-81
2021/03/13 09:54:38;;;;;;;10.75;2.28;;;17.80;51.00;;;;;;5074633;28;20439;-82
2021/03/13 09:57:15;;;;;;;12.43;2.50;;;17.80;50.90;;;;;;5070990;28;21166;-78
2021/03/13 09:59:42;;;;;;;11.68;2.22;;;17.90;50.70;;;;;;5088647;28;20056;-83
2021/03/13 10:02:21;;;;;;;10.32;2.25;;;17.90;50.80;;;;;;5076140;28;20108;-81
2021/03/13 10:04:50;;;;;;;10.95;2.60;;;17.90;50.60;;;;;;5076973;28;20145;-78
2021/03/13 10:07:29;;;;;;;14.02;3.65;;;17.90;50.80;;;;;;5078772;28;20060;-81
2021/03/13 10:10:00;;;;;;;15.60;3.33;;;17.90;51.20;;;;;;5050970;28;20058;-77
2021/03/13 10:12:44;;;;;;;11.38;2.30;;;17.90;51.40;;;;;;5079112;28;20451;-78
2021/03/13 10:15:30;;;;;;;26.25;4.13;;;17.80;51.60;;;;;;5096747;28;20036;-74
2021/03/13 10:18:16;;;;;;;35.13;5.45;;;17.70;52.40;;;;;;5075328;28;20119;-77
2021/03/13 10:20:48;;;;;;;14.55;3.75;;;17.80;52.50;;;;;;5076621;28;20335;-79
2021/03/13 10:23:21;;;;;;;20.00;3.50;;;17.80;52.50;;;;;;5083701;28;20042;-77
2021/03/13 10:25:55;;;;;;;;;;;17.80;52.40;;;;;;5096709;28;20051;-78
2021/03/13 10:28:38;;;;;;;19.10;3.40;;;17.80;52.40;;;;;;5096146;28;19912;-81
2021/03/13 10:31:10;;;;;;;24.77;4.38;;;17.80;52.80;;;;;;5097347;28;20357;-77
2021/03/13 10:33:38;;;;;;;24.42;3.35;;;17.70;52.80;;;;;;5076674;28;20323;-78
2021/03/13 10:36:05;;;;;;;16.90;2.83;;;17.80;53.00;;;;;;5083502;28;20063;-77
2021/03/13 10:38:45;;;;;;;20.33;3.30;;;17.70;53.00;;;;;;5091823;28;20040;-76
2021/03/13 10:41:14;;;;;;;17.40;3.13;;;17.80;53.00;;;;;;5096411;28;20051;-76
2021/03/13 10:43:45;;;;;;;21.45;3.60;;;17.70;53.00;;;;;;5096834;28;20349;-76
2021/03/13 10:46:19;;;;;;;16.95;3.03;;;17.70;51.80;;;;;;5095914;28;20036;-80
2021/03/13 10:48:54;;;;;;;14.10;2.85;;;17.70;51.80;;;;;;5093123;28;20035;-79
2021/03/13 10:51:21;;;;;;;12.77;2.90;;;17.70;51.30;;;;;;5094628;28;20043;-76
2021/03/13 10:53:47;;;;;;;11.95;2.75;;;17.70;51.30;;;;;;5078486;28;20114;-75
2021/03/13 10:56:14;;;;;;;11.00;3.00;;;17.60;51.00;;;;;;5096047;28;20028;-75
2021/03/13 10:58:50;;;;;;;9.93;2.15;;;17.60;50.80;;;;;;5095226;28;20063;-72
2021/03/13 11:01:17;;;;;;;9.45;2.40;;;17.60;50.80;;;;;;5095152;28;20055;-74
2021/03/13 11:03:44;;;;;;;9.55;2.65;;;17.60;51.00;;;;;;5094968;28;20050;-76
2021/03/13 11:06:12;;;;;;;6.97;2.33;;;17.60;51.30;;;;;;5095763;28;20316;-77
2021/03/13 11:08:38;;;;;;;8.80;2.33;;;17.60;51.40;;;;;;5095656;28;20028;-78
2021/03/13 11:11:04;;;;;;;14.13;2.55;;;17.50;52.10;;;;;;5095978;28;20047;-77
2021/03/13 11:13:30;;;;;;;9.25;2.03;;;17.60;51.60;;;;;;5095525;28;20036;-77
2021/03/13 11:15:56;;;;;;;14.25;2.75;;;17.60;51.70;;;;;;5094029;28;20028;-78
2021/03/13 11:18:22;;;;;;;10.27;3.13;;;17.60;51.60;;;;;;5095144;28;20039;-78
2021/03/13 11:20:49;;;;;;;9.30;2.60;;;17.60;52.20;;;;;;5095620;28;20370;-78
2021/03/13 11:23:15;;;;;;;9.60;1.95;;;17.60;51.50;;;;;;5095736;28;20043;-77
2021/03/13 11:25:41;;;;;;;9.38;2.28;;;17.60;51.50;;;;;;5095415;28;20040;-78
2021/03/13 11:28:08;;;;;;;13.60;2.15;;;17.50;51.40;;;;;;5095494;28;20398;-78
2021/03/13 11:30:35;;;;;;;13.23;2.60;;;17.60;51.60;;;;;;5095297;28;20064;-75
2021/03/13 11:33:01;;;;;;;9.50;2.25;;;17.60;51.60;;;;;;5095960;28;20036;-79
2021/03/13 11:35:28;;;;;;;7.85;2.17;;;17.60;51.60;;;;;;5095185;28;20047;-76
2021/03/13 11:37:55;;;;;;;8.90;2.28;;;17.60;51.70;;;;;;5092605;28;20450;-75
2021/03/13 11:40:22;;;;;;;14.27;2.63;;;17.60;51.70;;;;;;5095798;28;20105;-74
2021/03/13 11:42:51;;;;;;;8.18;2.17;;;17.60;51.90;;;;;;5095619;28;20339;-72
2021/03/13 11:45:19;;;;;;;9.48;2.20;;;17.60;51.80;;;;;;5095186;28;20036;-77
2021/03/13 11:47:45;;;;;;;8.82;2.70;;;17.50;50.60;;;;;;5094553;28;20051;-72
2021/03/13 11:50:14;;;;;;;13.30;3.08;;;17.30;49.00;;;;;;5094926;28;20107;-76
2021/03/13 11:52:41;;;;;;;11.82;3.10;;;17.10;48.70;;;;;;5095366;28;20036;-74
2021/03/13 11:55:08;;;;;;;7.97;2.25;;;16.90;47.50;;;;;;5095262;28;20044;-75
2021/03/13 11:57:35;;;;;;;6.95;2.03;;;16.60;47.20;;;;;;5095530;28;20423;-74
2021/03/13 12:00:01;;;;;;;7.00;1.80;;;16.50;48.20;;;;;;5095045;28;20109;-77
2021/03/13 12:02:27;;;;;;;7.35;2.45;;;16.20;46.80;;;;;;5095188;28;20040;-74
2021/03/13 12:04:53;;;;;;;9.82;2.58;;;16.10;46.90;;;;;;5094816;28;20036;-74
2021/03/13 12:07:19;;;;;;;12.45;2.90;;;16.00;47.10;;;;;;5092306;28;20407;-74
2021/03/13 12:09:45;;;;;;;16.90;3.55;;;16.00;46.90;;;;;;5095111;28;20035;-74
2021/03/13 12:12:11;;;;;;;12.45;2.97;;;15.80;47.40;;;;;;5095296;28;20043;-77
2021/03/13 12:14:38;;;;;;;8.52;2.17;;;15.80;47.50;;;;;;5103816;28;20425;-76
2021/03/13 12:17:06;;;;;;;10.20;2.28;;;15.70;46.70;;;;;;5099122;28;20064;-76
2021/03/13 12:19:33;;;;;;;10.23;2.55;;;15.70;48.10;;;;;;5099410;28;20454;-75
2021/03/13 12:22:00;;;;;;;10.52;2.97;;;15.60;47.50;;;;;;5099387;28;20036;-77
2021/03/13 12:24:26;;;;;;;29.17;9.10;;;15.50;47.90;;;;;;5080925;28;20044;-76
2021/03/13 12:26:52;;;;;;;13.45;4.32;;;15.60;48.20;;;;;;5107410;28;20036;-77
2021/03/13 12:29:19;;;;;;;15.23;3.70;;;15.50;48.30;;;;;;5099569;28;20051;-74
2021/03/13 12:31:45;;;;;;;10.15;3.13;;;15.40;48.10;;;;;;5098801;28;20052;-75
2021/03/13 12:34:11;;;;;;;12.85;3.20;;;15.40;48.30;;;;;;5098442;28;20379;-76
2021/03/13 12:36:37;;;;;;;10.93;2.85;;;15.40;49.30;;;;;;5099448;28;20115;-75
2021/03/13 12:39:04;;;;;;;10.02;2.40;;;15.40;48.90;;;;;;5098334;28;20059;-75
2021/03/13 12:41:30;;;;;;;10.27;2.40;;;15.40;49.80;;;;;;5098794;28;20048;-73
2021/03/13 12:43:56;;;;;;;10.57;2.65;;;15.40;50.30;;;;;;5080357;28;20046;-74
2021/03/13 12:46:22;;;;;;;7.80;2.00;;;15.50;50.30;;;;;;5099027;28;20066;-76
2021/03/13 12:48:49;;;;;;;9.23;2.00;;;15.80;50.40;;;;;;5098922;28;20036;-75
2021/03/13 12:51:16;;;;;;;11.55;2.72;;;16.00;50.60;;;;;;5098563;28;20047;-74
2021/03/13 12:53:46;;;;;;;10.43;2.30;;;16.20;50.90;;;;;;5098420;28;20048;-74
2021/03/13 12:56:12;;;;;;;11.70;2.45;;;16.50;51.20;;;;;;5096944;28;20329;-75
2021/03/13 12:58:38;;;;;;;16.10;2.90;;;16.70;51.50;;;;;;5098081;28;20051;-75
2021/03/13 13:01:05;;;;;;;11.50;2.95;;;16.90;53.60;;;;;;5097729;28;20477;-78
2021/03/13 13:03:31;;;;;;;9.10;2.30;;;17.00;53.40;;;;;;5098284;28;20032;-76
2021/03/13 13:05:57;;;;;;;9.45;2.10;;;17.10;53.50;;;;;;5098101;28;20048;-77
2021/03/13 13:08:23;;;;;;;4.85;2.10;;;17.20;53.50;;;;;;5092724;28;20037;-75
2021/03/13 13:10:49;;;;;;;9.15;1.85;;;17.30;53.60;;;;;;5078197;28;20047;-74
2021/03/13 13:13:16;;;;;;;8.98;2.13;;;17.40;53.60;;;;;;5081513;28;20040;-77
2021/03/13 13:15:47;;;;;;;10.70;2.55;;;17.40;53.60;;;;;;5080523;28;20037;-75
2021/03/13 13:18:16;;;;;;;10.85;2.47;;;17.40;53.80;;;;;;5079099;28;20056;-75